Time;durP1;ratioP1;P1;durP2;ratioP2;P2;SDS_P1;SDS_P2;PMS_P1;PMS_P2;Temp;Humidity;BMP_temperature;BMP_pressure;BME280_temperature;BME280_humidity;BME280_pressure;Samples;Min_cycle;Max_cycle;Signal;HPM_P1;HPM_P2
2023/04/25 00:00:53;;;;;;;12.77;3.47;;;;;;;-145.18;100.00;46681.88;4993910;28;20109;-69
2023/04/25 00:03:20;;;;;;;13.57;3.83;;;;;;;-145.18;100.00;46687.75;4993582;28;20121;-69
2023/04/25 00:05:46;;;;;;;20.20;3.70;;;;;;;-145.18;100.00;46695.56;4993600;28;20483;-69
2023/04/25 00:08:11;;;;;;;12.83;3.50;;;;;;;-145.18;100.00;46679.94;4993357;28;20314;-69
2023/04/25 00:10:36;;;;;;;13.97;3.73;;;;;;;-145.18;100.00;46685.78;4993297;28;20034;-70
2023/04/25 00:13:02;;;;;;;18.07;4.27;;;;;;;-145.18;100.00;46687.75;4993092;28;20045;-70
2023/04/25 00:15:30;;;;;;;19.97;4.47;;;;;;;-145.18;100.00;46683.84;4993366;28;20034;-69
2023/04/25 00:17:56;;;;;;;10.33;3.70;;;;;;;-145.18;100.00;46683.84;4993030;28;20038;-69
2023/04/25 00:20:23;;;;;;;14.17;3.57;;;;;;;-145.18;100.00;46687.75;4993104;28;20264;-70
2023/04/25 00:22:49;;;;;;;10.27;3.33;;;;;;;-145.18;100.00;46687.75;4993057;28;20276;-70
2023/04/25 00:25:14;;;;;;;19.50;4.53;;;;;;;-145.18;100.00;46689.69;4992924;28;20766;-70
2023/04/25 00:27:41;;;;;;;13.80;3.40;;;;;;;-145.18;100.00;46681.88;4992722;28;20030;-70
2023/04/25 00:30:07;;;;;;;19.67;4.40;;;;;;;-145.18;100.00;46695.56;4993190;28;20117;-70
2023/04/25 00:32:32;;;;;;;16.40;3.50;;;;;;;-145.18;100.00;46689.69;4992894;28;20327;-70
2023/04/25 00:34:58;;;;;;;15.83;3.53;;;;;;;-145.18;100.00;46679.94;4993017;28;20341;-70
2023/04/25 00:37:23;;;;;;;11.40;3.40;;;;;;;-145.18;100.00;46691.66;4992841;28;20049;-69
2023/04/25 00:39:49;;;;;;;12.07;3.73;;;;;;;-145.18;100.00;46693.59;4992974;28;20049;-69
2023/04/25 00:42:15;;;;;;;16.20;3.63;;;;;;;-145.18;100.00;46697.50;4991147;28;20151;-69
2023/04/25 00:44:41;;;;;;;14.17;3.63;;;;;;;-145.18;100.00;46689.69;4992789;28;20050;-69
2023/04/25 00:47:07;;;;;;;12.50;3.97;;;;;;;-145.18;100.00;46691.66;4991257;28;20396;-69
2023/04/25 00:49:32;;;;;;;13.40;2.97;;;;;;;-145.18;100.00;46697.50;4992704;28;20291;-69
2023/04/25 00:51:58;;;;;;;14.67;3.83;;;;;;;-145.18;100.00;46703.38;4992349;28;20295;-69
2023/04/25 00:54:25;;;;;;;13.53;3.13;;;;;;;-145.18;100.00;46693.59;4992790;28;20041;-69
2023/04/25 00:56:50;;;;;;;19.23;3.90;;;;;;;-145.18;100.00;46691.66;4992604;28;20038;-70
2023/04/25 00:59:16;;;;;;;18.13;4.07;;;;;;;-145.18;100.00;46701.41;4992381;28;20310;-70
2023/04/25 01:01:42;;;;;;;16.23;3.80;;;;;;;-145.18;100.00;46695.56;4992324;28;20042;-70
2023/04/25 01:04:08;;;;;;;17.17;3.50;;;;;;;-145.18;100.00;46701.41;4992389;28;20271;-70
2023/04/25 01:06:33;;;;;;;15.40;3.13;;;;;;;-145.18;100.00;46699.47;4992349;28;20121;-69
2023/04/25 01:08:59;;;;;;;12.47;2.80;;;;;;;-145.18;100.00;46699.47;4992305;28;20498;-70
2023/04/25 01:11:25;;;;;;;13.07;3.27;;;;;;;-145.18;100.00;46705.31;4992146;28;20057;-69
2023/04/25 01:13:50;;;;;;;17.73;3.50;;;;;;;-145.18;100.00;46695.56;4992437;28;20598;-69
2023/04/25 01:16:16;;;;;;;17.47;3.70;;;;;;;-145.18;100.00;46703.38;4991851;28;20034;-70
2023/04/25 01:18:42;;;;;;;18.90;4.20;;;;;;;-145.18;100.00;46699.47;4992211;28;20069;-70
2023/04/25 01:21:12;;;;;;;15.87;4.20;;;;;;;-145.18;100.00;46697.50;4992117;28;20042;-69
2023/04/25 01:23:39;;;;;;;11.27;3.27;;;;;;;-145.18;100.00;46711.19;4992105;28;20782;-69
2023/04/25 01:26:06;;;;;;;14.83;3.60;;;;;;;-145.18;100.00;46697.50;4990784;28;20280;-69
2023/04/25 01:28:33;;;;;;;13.70;3.40;;;;;;;-145.18;100.00;46691.66;4991645;28;20283;-69
2023/04/25 01:30:59;;;;;;;17.63;4.10;;;;;;;-145.18;100.00;46699.47;4991659;28;20284;-69
2023/04/25 01:33:24;;;;;;;18.07;3.53;;;;;;;-145.18;100.00;46699.47;4991050;28;20287;-69
2023/04/25 01:35:49;;;;;;;13.10;4.13;;;;;;;-145.18;100.00;46707.28;4991953;28;20031;-69
2023/04/25 01:38:15;;;;;;;12.53;3.50;;;;;;;-145.18;100.00;46703.38;4990786;28;20425;-69
2023/04/25 01:40:41;;;;;;;17.23;3.37;;;;;;;-145.18;100.00;46707.28;4991700;28;20038;-69
2023/04/25 01:43:10;;;;;;;17.13;3.40;;;;;;;-145.18;100.00;46703.38;4991364;28;20038;-69
2023/04/25 01:45:39;;;;;;;10.87;3.63;;;;;;;-145.18;100.00;46695.56;4991741;28;20264;-70
2023/04/25 01:48:05;;;;;;;14.13;4.17;;;;;;;-145.18;100.00;46707.28;4991538;28;20330;-70
2023/04/25 01:50:30;;;;;;;20.87;3.60;;;;;;;-145.18;100.00;46695.56;4991555;28;20276;-70
2023/04/25 01:52:56;;;;;;;26.53;4.60;;;;;;;-145.18;100.00;46695.56;4991789;28;20471;-69
2023/04/25 01:55:22;;;;;;;13.23;3.53;;;;;;;-145.18;100.00;46701.41;4990030;28;20121;-69
2023/04/25 01:57:47;;;;;;;12.80;3.70;;;;;;;-145.18;100.00;46695.56;4991457;28;20379;-69
2023/04/25 02:00:13;;;;;;;17.53;4.43;;;;;;;-145.18;100.00;46699.47;4990333;28;20034;-69
2023/04/25 02:02:38;;;;;;;14.80;4.07;;;;;;;-145.18;100.00;46703.38;5290349;22;20465;-71
2023/04/25 02:05:04;;;;;;;14.57;3.43;;;;;;;-145.18;100.00;46697.50;4992355;28;20047;-70
2023/04/25 02:07:30;;;;;;;15.63;4.20;;;;;;;-145.18;100.00;46699.47;4998741;28;20561;-70
2023/04/25 02:09:55;;;;;;;19.30;4.03;;;;;;;-145.18;100.00;46701.41;5000093;28;20490;-70
2023/04/25 02:12:20;;;;;;;22.50;4.10;;;;;;;-145.18;100.00;46693.59;4991416;28;20115;-70
2023/04/25 02:14:46;;;;;;;16.10;4.20;;;;;;;-145.18;100.00;46707.28;4991343;28;20121;-70
2023/04/25 02:17:12;;;;;;;19.10;3.93;;;;;;;-145.18;100.00;46695.56;4991263;28;20030;-70
2023/04/25 02:19:38;;;;;;;15.07;3.20;;;;;;;-145.18;100.00;46701.41;4991444;28;20038;-71
2023/04/25 02:22:03;;;;;;;17.70;3.07;;;;;;;-145.18;100.00;46699.47;4989786;28;20283;-70
2023/04/25 02:24:29;;;;;;;19.17;4.00;;;;;;;-145.18;100.00;46699.47;4991533;28;20096;-70
2023/04/25 02:26:55;;;;;;;21.53;5.10;;;;;;;-145.18;100.00;46705.31;4990842;28;20038;-70
2023/04/25 02:29:21;;;;;;;17.37;3.57;;;;;;;-145.18;100.00;46707.28;4991297;28;20045;-70
2023/04/25 02:31:46;;;;;;;18.63;4.53;;;;;;;-145.18;100.00;46697.50;4991013;28;20272;-71
2023/04/25 02:34:12;;;;;;;12.50;3.53;;;;;;;-145.18;100.00;46701.41;4991441;28;20526;-71
2023/04/25 02:36:37;;;;;;;14.97;3.90;;;;;;;-145.18;100.00;46689.69;4990005;28;20030;-71
2023/04/25 02:39:03;;;;;;;20.90;3.97;;;;;;;-145.18;100.00;46701.41;4989574;28;20181;-70
2023/04/25 02:41:28;;;;;;;18.30;4.20;;;;;;;-145.18;100.00;46695.56;4991200;28;20041;-71
2023/04/25 02:43:54;;;;;;;24.00;4.43;;;;;;;-145.18;100.00;46703.38;4990677;28;20121;-71
2023/04/25 02:46:20;;;;;;;19.87;4.53;;;;;;;-145.18;100.00;46697.50;4991281;28;20038;-71
2023/04/25 02:48:45;;;;;;;18.53;4.20;;;;;;;-145.18;100.00;46701.41;4991766;28;20045;-71
2023/04/25 02:51:11;;;;;;;20.03;4.20;;;;;;;-145.18;100.00;46697.50;5010444;28;20038;-71
2023/04/25 02:53:36;;;;;;;14.17;3.80;;;;;;;-145.18;100.00;46707.28;4998539;28;20044;-71
2023/04/25 02:56:01;;;;;;;12.53;3.50;;;;;;;-145.18;100.00;46707.28;5010471;28;20076;-71
2023/04/25 02:58:27;;;;;;;20.17;4.20;;;;;;;-145.18;100.00;46711.19;5010553;28;20045;-71
2023/04/25 03:00:53;;;;;;;10.77;3.20;;;;;;;-145.18;100.00;46709.22;5010045;28;20490;-71
2023/04/25 03:03:21;;;;;;;21.67;4.27;;;;;;;-145.18;100.00;46709.22;5010076;28;20061;-71
2023/04/25 03:05:48;;;;;;;16.43;3.07;;;;;;;-145.18;100.00;46713.13;5006897;28;20026;-71
2023/04/25 03:08:13;;;;;;;12.53;3.20;;;;;;;-145.18;100.00;46699.47;5010374;28;20283;-71
2023/04/25 03:10:38;;;;;;;14.87;3.80;;;;;;;-145.18;100.00;46705.31;5010561;28;20279;-71
2023/04/25 03:13:04;;;;;;;10.27;2.60;;;;;;;-145.18;100.00;46711.19;5010083;28;20113;-71
2023/04/25 03:15:31;;;;;;;10.20;3.00;;;;;;;-145.18;100.00;46713.13;5010323;28;20486;-71
2023/04/25 03:17:56;;;;;;;11.00;3.33;;;;;;;-145.18;100.00;46713.13;5010020;28;20034;-72
2023/04/25 03:20:21;;;;;;;12.90;3.00;;;;;;;-145.18;100.00;46713.13;5010255;28;20293;-71
2023/04/25 03:22:47;;;;;;;16.27;3.17;;;;;;;-145.18;100.00;46717.03;5010138;28;20458;-71
2023/04/25 03:25:12;;;;;;;16.20;3.10;;;;;;;-145.18;100.00;46717.03;5010192;28;20042;-71
2023/04/25 03:27:37;;;;;;;19.50;3.00;;;;;;;-145.18;100.00;46715.09;5010217;28;20042;-71
2023/04/25 03:30:03;;;;;;;14.03;3.40;;;;;;;-145.18;100.00;46717.03;5010012;28;20045;-71
2023/04/25 03:32:29;;;;;;;10.93;2.67;;;;;;;-145.18;100.00;46715.09;5010056;28;20038;-71
2023/04/25 03:34:55;;;;;;;15.47;3.13;;;;;;;-145.18;100.00;46719.00;5003623;28;20046;-71
2023/04/25 03:37:20;;;;;;;13.83;3.43;;;;;;;-145.18;100.00;46715.09;4990417;28;20066;-71
2023/04/25 03:39:46;;;;;;;15.07;3.40;;;;;;;-145.18;100.00;46719.00;4990654;28;20030;-71
2023/04/25 03:42:11;;;;;;;15.97;3.33;;;;;;;-145.18;100.00;46715.09;4990339;28;20066;-71
2023/04/25 03:44:36;;;;;;;14.37;2.97;;;;;;;-145.18;100.00;46713.13;4990467;28;20069;-71
2023/04/25 03:47:02;;;;;;;11.23;3.53;;;;;;;-145.18;100.00;46713.13;4990141;28;20030;-71
2023/04/25 03:49:27;;;;;;;22.40;4.63;;;;;;;-145.18;100.00;46711.19;4989293;28;20513;-71
2023/04/25 03:51:52;;;;;;;10.50;3.33;;;;;;;-145.18;100.00;46715.09;4990480;28;20037;-70
2023/04/25 03:54:18;;;;;;;14.57;2.90;;;;;;;-145.18;100.00;46715.09;4983306;28;20069;-71
2023/04/25 03:56:43;;;;;;;12.07;2.90;;;;;;;-145.18;100.00;46711.19;4990692;28;20121;-71
2023/04/25 03:59:09;;;;;;;14.70;3.37;;;;;;;-145.18;100.00;46719.00;4992990;28;20615;-71
2023/04/25 04:01:35;;;;;;;12.43;2.67;;;;;;;-145.18;100.00;46717.03;4990787;28;20022;-71
2023/04/25 11:39:59;;;;;;;2.25;0.70;;;;;;;-145.18;100.00;47504.31;5061801;27;1276008;-70
2023/04/25 11:42:24;;;;;;;6.90;1.27;;;;;;;-145.18;100.00;47543.41;5073981;28;20044;-71
2023/04/25 11:44:50;;;;;;;4.27;0.70;;;;;;;-145.18;100.00;47555.13;5086090;28;20036;-71
2023/04/25 11:47:16;;;;;;;2.97;1.30;;;;;;;-145.18;100.00;47570.75;5067127;28;20869;-71
2023/04/25 11:49:41;;;;;;;2.83;0.60;;;;;;;-145.18;100.00;47545.34;5101112;28;20295;-71
2023/04/25 11:52:07;;;;;;;2.60;0.70;;;;;;;-145.18;100.00;47570.75;5086931;28;20036;-71
2023/04/25 11:54:35;;;;;;;4.67;1.07;;;;;;;-145.18;100.00;47529.72;5098181;28;20031;-71
2023/04/25 11:57:01;;;;;;;11.27;0.90;;;;;;;-145.18;100.00;47615.69;5096364;28;20547;-70
2023/04/25 11:59:27;;;;;;;6.23;0.83;;;;;;;-145.18;100.00;47570.75;5086752;28;20371;-71
2023/04/25 12:01:53;;;;;;;6.30;1.30;;;;;;;-145.18;100.00;47602.00;5086150;28;20505;-71
2023/04/25 12:04:24;;;;;;;4.70;0.80;;;;;;;-145.18;100.00;47566.84;5086265;28;20269;-71
2023/04/25 12:06:53;;;;;;;3.73;0.73;;;;;;;-145.18;100.00;47525.81;5068001;28;20276;-71
2023/04/25 12:09:33;;;;;;;4.00;1.23;;;;;;;-145.18;100.00;47387.09;5073527;28;20286;-70
2023/04/25 12:12:02;;;;;;;3.80;0.90;;;;;;;-145.18;100.00;47238.63;5057446;28;20301;-70
2023/04/25 12:14:33;;;;;;;5.27;0.80;;;;;;;-145.18;100.00;47176.09;5083421;28;20253;-71
2023/04/25 12:17:00;;;;;;;4.10;0.90;;;;;;;-145.18;100.00;47463.31;5068086;28;20297;-70
2023/04/25 12:19:31;;;;;;;8.27;1.97;;;;;;;-145.18;100.00;47435.94;5086286;28;20288;-71
2023/04/25 12:21:56;;;;;;;7.90;1.30;;;;;;;-145.18;100.00;47406.63;5086068;28;20280;-71
2023/04/25 12:24:25;;;;;;;2.73;0.77;;;;;;;-145.18;100.00;47406.63;5085688;28;20697;-72
2023/04/25 12:27:00;;;;;;;10.83;1.37;;;;;;;-145.18;100.00;47473.06;5085837;28;20033;-71
2023/04/25 12:29:27;;;;;;;7.32;1.15;;;;;;;-145.18;100.00;47430.09;5065122;28;20293;-71
2023/04/25 12:31:54;;;;;;;5.40;1.63;;;;;;;-145.18;100.00;47426.19;5064731;28;20116;-71
2023/04/25 12:34:21;;;;;;;5.13;1.10;;;;;;;-145.18;100.00;47494.56;5064167;28;20273;-71
2023/04/25 12:36:46;;;;;;;4.63;0.77;;;;;;;-145.18;100.00;47437.91;5058751;28;20292;-72
2023/04/25 12:39:19;;;;;;;2.17;0.60;;;;;;;-145.18;100.00;47418.38;5053387;28;20778;-71
2023/04/25 12:41:46;;;;;;;4.97;0.80;;;;;;;-145.18;100.00;47410.56;5047191;28;20039;-71
2023/04/25 12:44:12;;;;;;;3.07;0.70;;;;;;;-145.18;100.00;47396.88;5049728;28;20033;-71
2023/04/25 12:46:37;;;;;;;4.73;0.70;;;;;;;-145.18;100.00;47410.56;5050658;28;20040;-71
2023/04/25 12:49:04;;;;;;;1.63;0.63;;;;;;;-145.18;100.00;47398.81;5070239;28;20616;-71
2023/04/25 12:51:30;;;;;;;2.90;0.90;;;;;;;-145.18;100.00;47486.75;5063064;28;20490;-71
2023/04/25 12:53:55;;;;;;;5.70;1.13;;;;;;;-145.18;100.00;47496.50;5043818;28;20032;-71
2023/04/25 12:56:21;;;;;;;6.83;1.10;;;;;;;-145.18;100.00;47506.28;5062866;28;20048;-71
2023/04/25 12:58:47;;;;;;;7.03;1.43;;;;;;;-145.18;100.00;47512.16;5059669;28;20047;-71
2023/04/25 13:01:13;;;;;;;3.67;1.03;;;;;;;-145.18;100.00;47443.75;5068745;28;20116;-71
2023/04/25 13:03:40;;;;;;;7.40;1.40;;;;;;;-145.18;100.00;47410.56;5032250;28;20369;-71
2023/04/25 13:06:06;;;;;;;4.03;0.90;;;;;;;-145.18;100.00;47465.25;5034286;28;20044;-71
2023/04/25 13:08:31;;;;;;;2.03;0.60;;;;;;;-145.18;100.00;47412.50;5062038;28;20690;-71
2023/04/25 13:10:57;;;;;;;4.10;0.93;;;;;;;-145.18;100.00;47406.63;5051924;28;20266;-71
2023/04/25 13:13:22;;;;;;;7.13;0.80;;;;;;;-145.18;100.00;47387.09;5053372;28;20123;-71
2023/04/25 13:15:47;;;;;;;3.53;0.90;;;;;;;-145.18;100.00;47383.19;5071772;28;20089;-71
2023/04/25 13:18:13;;;;;;;5.00;0.90;;;;;;;-145.18;100.00;47414.47;5054798;28;20131;-71
2023/04/25 13:20:38;;;;;;;2.47;0.60;;;;;;;-145.18;100.00;47394.91;5064985;28;20037;-71
2023/04/25 13:23:03;;;;;;;5.23;0.80;;;;;;;-145.18;100.00;47402.72;5049709;28;20322;-71
2023/04/25 13:25:29;;;;;;;1.07;0.57;;;;;;;-145.18;100.00;47410.56;5049996;28;20037;-71
2023/04/25 13:27:54;;;;;;;5.63;0.80;;;;;;;-145.18;100.00;47394.91;5050792;28;20036;-71
2023/04/25 13:30:21;;;;;;;4.90;0.97;;;;;;;-145.18;100.00;47377.34;5050813;28;20036;-71
2023/04/25 13:32:46;;;;;;;3.23;0.77;;;;;;;-145.18;100.00;47389.06;5049335;28;20116;-71
2023/04/25 13:35:13;;;;;;;3.73;0.80;;;;;;;-145.18;100.00;47400.78;5050377;28;20100;-71
2023/04/25 13:37:40;;;;;;;2.90;0.90;;;;;;;-145.18;100.00;47375.38;5048234;28;20041;-71
2023/04/25 13:40:09;;;;;;;9.97;1.67;;;;;;;-145.18;100.00;47363.66;5048732;28;20037;-71
2023/04/25 13:42:35;;;;;;;3.60;0.70;;;;;;;-145.18;100.00;47453.53;5049213;28;20477;-71
2023/04/25 13:45:01;;;;;;;5.20;0.87;;;;;;;-145.18;100.00;47494.56;5048782;28;20443;-71
2023/04/25 13:47:27;;;;;;;3.77;0.60;;;;;;;-145.18;100.00;47459.41;5048856;28;20036;-70
2023/04/25 13:49:53;;;;;;;3.53;0.67;;;;;;;-145.18;100.00;47398.81;5050013;28;20033;-71
2023/04/25 13:52:18;;;;;;;4.10;0.70;;;;;;;-145.18;100.00;47373.44;5047149;28;20863;-70
2023/04/25 13:54:44;;;;;;;6.03;0.90;;;;;;;-145.18;100.00;47373.44;5050129;28;20029;-71
2023/04/25 13:57:10;;;;;;;5.03;0.90;;;;;;;-145.18;100.00;47371.47;5049311;28;20036;-71
2023/04/25 13:59:36;;;;;;;3.70;0.77;;;;;;;-145.18;100.00;47375.38;5051832;28;20443;-70
2023/04/25 14:02:01;;;;;;;3.23;1.03;;;;;;;-145.18;100.00;47344.13;5031089;28;20124;-70
2023/04/25 14:04:27;;;;;;;5.33;1.20;;;;;;;-145.18;100.00;47371.47;5049382;28;20102;-70
2023/04/25 14:06:53;;;;;;;8.47;0.70;;;;;;;-145.18;100.00;47385.16;5047842;28;20289;-70
2023/04/25 14:09:19;;;;;;;3.33;0.50;;;;;;;-145.18;100.00;47383.19;5049945;28;20052;-71
2023/04/25 14:11:44;;;;;;;3.87;1.10;;;;;;;-145.18;100.00;47471.13;5048967;28;20090;-70
2023/04/25 14:14:10;;;;;;;4.50;1.17;;;;;;;-145.18;100.00;47373.44;5048996;28;20020;-70
2023/04/25 14:16:35;;;;;;;2.20;0.80;;;;;;;-145.18;100.00;47449.63;5047871;28;20040;-70
2023/04/25 14:19:01;;;;;;;2.07;0.80;;;;;;;-145.18;100.00;47400.78;5048072;28;20032;-70
2023/04/25 14:21:28;;;;;;;1.83;1.00;;;;;;;-145.18;100.00;47387.09;5047020;28;20025;-70
2023/04/25 14:23:53;;;;;;;7.60;1.17;;;;;;;-145.18;100.00;47406.63;5044359;28;20033;-70
2023/04/25 14:26:19;;;;;;;4.43;1.40;;;;;;;-145.18;100.00;47418.38;5043681;28;20041;-70
2023/04/25 14:28:44;;;;;;;1.87;0.70;;;;;;;-145.18;100.00;47406.63;5045722;28;20040;-70
2023/04/25 14:31:10;;;;;;;3.23;0.83;;;;;;;-145.18;100.00;47404.69;5049685;28;20033;-70
2023/04/25 14:33:37;;;;;;;4.80;1.10;;;;;;;-145.18;100.00;47412.50;5029563;28;20060;-70
2023/04/25 14:36:02;;;;;;;2.63;0.70;;;;;;;-145.18;100.00;47416.41;5044857;28;20028;-70
2023/04/25 14:38:28;;;;;;;5.50;0.90;;;;;;;-145.18;100.00;47404.69;5046589;28;20426;-70
2023/04/25 14:40:54;;;;;;;6.57;1.07;;;;;;;-145.18;100.00;47414.47;5056549;28;20036;-70
2023/04/25 14:43:19;;;;;;;2.57;0.83;;;;;;;-145.18;100.00;47406.63;5047156;28;20703;-70
2023/04/25 14:45:45;;;;;;;3.27;0.80;;;;;;;-145.18;100.00;47406.63;5048021;28;20274;-70
2023/04/25 14:48:10;;;;;;;4.93;1.03;;;;;;;-145.18;100.00;47412.50;5047718;28;20065;-70
2023/04/25 14:50:36;;;;;;;4.00;0.97;;;;;;;-145.18;100.00;47385.16;5048373;28;20139;-70
2023/04/25 14:53:01;;;;;;;1.07;0.50;;;;;;;-145.18;100.00;47465.25;5049211;28;20033;-70
2023/04/25 14:55:27;;;;;;;3.33;0.80;;;;;;;-145.18;100.00;47422.28;5061603;28;20029;-70
2023/04/25 14:57:53;;;;;;;7.10;1.13;;;;;;;-145.18;100.00;47359.75;5065838;28;20123;-71
2023/04/25 15:00:20;;;;;;;3.20;0.73;;;;;;;-145.18;100.00;47459.41;5052074;28;20036;-71
2023/04/25 15:02:46;;;;;;;4.40;1.90;;;;;;;-145.18;100.00;47373.44;5048619;28;20127;-71
2023/04/25 15:05:13;;;;;;;7.57;1.40;;;;;;;-145.18;100.00;47369.53;5049801;28;20288;-71
2023/04/25 15:07:39;;;;;;;7.47;1.30;;;;;;;-145.18;100.00;47385.16;5051875;28;20076;-71
2023/04/25 15:10:10;;;;;;;3.33;0.80;;;;;;;-145.18;100.00;47492.59;5050941;28;20089;-70
2023/04/25 15:12:36;;;;;;;6.87;0.93;;;;;;;-145.18;100.00;47375.38;5045056;28;20331;-70
2023/04/25 15:15:02;;;;;;;5.70;0.90;;;;;;;-145.18;100.00;47469.16;5064450;28;20277;-70
2023/04/25 15:17:30;;;;;;;3.43;0.90;;;;;;;-145.18;100.00;47353.88;5053680;28;20112;-70
2023/04/25 15:19:56;;;;;;;6.80;1.77;;;;;;;-145.18;100.00;47316.78;5050984;28;20071;-70
2023/04/25 15:22:21;;;;;;;2.67;0.80;;;;;;;-145.18;100.00;47398.81;5049448;28;20262;-70
2023/04/25 15:24:47;;;;;;;6.77;1.10;;;;;;;-145.18;100.00;47346.06;5065972;28;20036;-70
2023/04/25 15:27:12;;;;;;;5.30;1.23;;;;;;;-145.18;100.00;47322.63;5069191;28;20024;-70
2023/04/25 15:29:38;;;;;;;6.07;0.83;;;;;;;-145.18;100.00;47308.97;5049673;28;20766;-70
2023/04/25 15:32:03;;;;;;;5.63;1.10;;;;;;;-145.18;100.00;47301.16;5049589;28;20037;-70
2023/04/25 15:34:29;;;;;;;2.97;1.03;;;;;;;-145.18;100.00;47293.31;5031826;28;20068;-70
2023/04/25 15:36:54;;;;;;;3.43;0.80;;;;;;;-145.18;100.00;47301.16;5053720;28;20032;-70
2023/04/25 15:39:20;;;;;;;5.70;1.13;;;;;;;-145.18;100.00;47297.22;5052041;28;20118;-70
2023/04/25 15:41:46;;;;;;;5.97;1.37;;;;;;;-145.18;100.00;47303.09;5049581;28;20033;-70
2023/04/25 15:44:11;;;;;;;2.07;0.90;;;;;;;-145.18;100.00;47299.19;5049385;28;20420;-70
2023/04/25 15:46:37;;;;;;;3.70;0.83;;;;;;;-145.18;100.00;47453.53;5068082;28;20036;-71
2023/04/25 15:49:03;;;;;;;4.53;1.13;;;;;;;-145.18;100.00;47471.13;5054271;28;20037;-70
2023/04/25 15:51:29;;;;;;;6.07;1.17;;;;;;;-145.18;100.00;47342.16;5058879;28;20035;-70
2023/04/25 15:53:55;;;;;;;8.90;0.90;;;;;;;-145.18;100.00;47307.00;5053112;28;20516;-70
2023/04/25 15:56:20;;;;;;;6.80;1.50;;;;;;;-145.18;100.00;47394.91;5031685;28;20056;-70
2023/04/25 15:58:46;;;;;;;5.53;1.10;;;;;;;-145.18;100.00;47342.16;5056252;28;20746;-70
2023/04/25 16:01:12;;;;;;;5.80;1.67;;;;;;;-145.18;100.00;47357.78;5031860;28;20032;-70
2023/04/25 16:03:38;;;;;;;5.07;1.50;;;;;;;-145.18;100.00;47277.69;5047657;28;20037;-71
2023/04/25 16:06:03;;;;;;;4.80;0.80;;;;;;;-145.18;100.00;47426.19;5048852;28;20033;-70
2023/04/25 16:08:33;;;;;;;5.30;0.80;;;;;;;-145.18;100.00;47488.69;5049049;28;20049;-71
2023/04/25 16:10:58;;;;;;;2.17;1.10;;;;;;;-145.18;100.00;47469.16;5049300;28;20140;-70
2023/04/25 16:13:26;;;;;;;5.80;0.83;;;;;;;-145.18;100.00;47478.94;5048965;28;20364;-70
2023/04/25 16:15:51;;;;;;;1.90;0.83;;;;;;;-145.18;100.00;47381.25;5051955;28;20037;-70
2023/04/25 16:18:17;;;;;;;3.40;0.97;;;;;;;-145.18;100.00;47451.56;5060047;28;20396;-71
2023/04/25 16:20:42;;;;;;;5.93;1.00;;;;;;;-145.18;100.00;47486.75;5070142;28;20040;-70
2023/04/25 16:23:08;;;;;;;4.83;1.20;;;;;;;-145.18;100.00;47519.97;5067579;28;20048;-70
2023/04/25 16:25:33;;;;;;;2.90;0.97;;;;;;;-145.18;100.00;47510.19;5052932;28;20037;-70
2023/04/25 16:27:59;;;;;;;6.67;1.00;;;;;;;-145.18;100.00;47521.91;5060700;28;20056;-70
2023/04/25 16:30:25;;;;;;;2.37;0.90;;;;;;;-145.18;100.00;47531.69;5052811;28;20043;-70
2023/04/25 16:32:50;;;;;;;4.17;0.80;;;;;;;-145.18;100.00;47512.16;5052783;28;20108;-70
2023/04/25 16:35:15;;;;;;;3.30;1.23;;;;;;;-145.18;100.00;47529.72;5052721;28;20274;-70
2023/04/25 16:37:41;;;;;;;4.27;1.40;;;;;;;-145.18;100.00;47545.34;5060578;28;20029;-70
2023/04/25 16:40:08;;;;;;;5.60;1.60;;;;;;;-145.18;100.00;47545.34;5063523;28;20049;-70
2023/04/25 16:42:35;;;;;;;3.73;1.07;;;;;;;-145.18;100.00;47541.44;5072339;28;20043;-70
2023/04/25 16:45:00;;;;;;;5.57;1.30;;;;;;;-145.18;100.00;47551.22;5058624;28;20325;-70
2023/04/25 16:47:26;;;;;;;4.20;1.40;;;;;;;-145.18;100.00;47535.59;5064152;28;20721;-70
2023/04/25 16:49:52;;;;;;;6.90;1.47;;;;;;;-145.18;100.00;47547.31;5054533;28;20131;-70
2023/04/25 16:52:19;;;;;;;7.73;1.27;;;;;;;-145.18;100.00;47531.69;5065955;28;20040;-70
2023/04/25 16:54:45;;;;;;;5.63;1.17;;;;;;;-145.18;100.00;47539.50;5055628;28;20473;-70
2023/04/25 16:57:12;;;;;;;11.13;1.70;;;;;;;-145.18;100.00;47531.69;5059879;28;20288;-70
2023/04/25 16:59:38;;;;;;;4.40;1.23;;;;;;;-145.18;100.00;47533.63;5053668;28;20040;-70
2023/04/25 17:02:04;;;;;;;6.10;1.00;;;;;;;-145.18;100.00;47516.06;5042478;28;20266;-71
2023/04/25 17:04:29;;;;;;;2.97;0.93;;;;;;;-145.18;100.00;47457.44;5047887;28;20060;-70
2023/04/25 17:06:54;;;;;;;5.90;1.27;;;;;;;-145.18;100.00;47451.56;5059650;28;20110;-70
2023/04/25 17:09:20;;;;;;;6.20;1.40;;;;;;;-145.18;100.00;47463.31;5036907;28;20104;-70
2023/04/25 17:11:46;;;;;;;5.53;1.03;;;;;;;-145.18;100.00;47469.16;5052143;28;20068;-70
2023/04/25 17:14:12;;;;;;;4.57;1.00;;;;;;;-145.18;100.00;47445.72;5051586;28;20041;-70
2023/04/25 17:16:38;;;;;;;2.20;1.00;;;;;;;-145.18;100.00;47422.28;5051852;28;20271;-71
2023/04/25 17:19:04;;;;;;;2.70;0.80;;;;;;;-145.18;100.00;47428.13;5051522;28;20199;-70
2023/04/25 17:21:30;;;;;;;4.50;0.93;;;;;;;-145.18;100.00;47461.34;5050533;28;20352;-70
2023/04/25 17:23:57;;;;;;;2.17;0.90;;;;;;;-145.18;100.00;47455.47;5051007;28;20739;-70
2023/04/25 17:26:23;;;;;;;4.83;1.27;;;;;;;-145.18;100.00;47453.53;5062279;28;20285;-70
2023/04/25 17:28:48;;;;;;;3.43;1.07;;;;;;;-145.18;100.00;47484.78;5064370;28;20320;-70
2023/04/25 17:31:17;;;;;;;4.03;1.20;;;;;;;-145.18;100.00;47486.75;5035767;28;20417;-70
2023/04/25 17:33:43;;;;;;;5.87;1.00;;;;;;;-145.18;100.00;47471.13;5032994;28;20191;-71
2023/04/25 17:36:08;;;;;;;5.57;1.30;;;;;;;-145.18;100.00;47469.16;5051622;28;20361;-71
2023/04/25 17:38:35;;;;;;;3.07;1.03;;;;;;;-145.18;100.00;47508.22;5050878;28;20402;-72
2023/04/25 17:41:01;;;;;;;3.33;0.90;;;;;;;-145.18;100.00;47527.78;5059806;28;20416;-71
2023/04/25 17:43:27;;;;;;;4.27;1.07;;;;;;;-145.18;100.00;47519.97;5066215;28;20292;-71
2023/04/25 17:45:53;;;;;;;8.10;1.13;;;;;;;-145.18;100.00;47519.97;5061526;28;20033;-71
2023/04/25 17:48:21;;;;;;;2.93;0.90;;;;;;;-145.18;100.00;47529.72;5070561;28;20033;-71
2023/04/25 17:50:46;;;;;;;7.40;1.67;;;;;;;-145.18;100.00;47541.44;5071298;28;20087;-71
2023/04/25 17:53:12;;;;;;;4.10;1.03;;;;;;;-145.18;100.00;47562.94;5071410;28;20304;-71
2023/04/25 17:55:37;;;;;;;4.87;0.90;;;;;;;-145.18;100.00;47555.13;5071132;28;20029;-71
2023/04/25 17:58:02;;;;;;;5.20;1.03;;;;;;;-145.18;100.00;47555.13;5061852;28;20162;-71
2023/04/25 18:00:30;;;;;;;8.03;1.27;;;;;;;-145.18;100.00;47531.69;5050520;28;20065;-71
2023/04/25 18:02:55;;;;;;;5.03;1.27;;;;;;;-145.18;100.00;47518.00;5050259;28;20020;-71
2023/04/25 18:05:21;;;;;;;4.07;1.00;;;;;;;-145.18;100.00;47531.69;5050212;28;20392;-71
2023/04/25 18:07:46;;;;;;;3.23;1.17;;;;;;;-145.18;100.00;47564.91;5049941;28;20031;-71
2023/04/25 18:10:13;;;;;;;2.77;1.20;;;;;;;-145.18;100.00;47566.84;5050359;28;20102;-71
2023/04/25 18:12:39;;;;;;;5.50;1.23;;;;;;;-145.18;100.00;47533.63;5050002;28;20580;-71
2023/04/25 18:15:05;;;;;;;6.47;1.50;;;;;;;-145.18;100.00;47561.00;5050333;28;20270;-71
2023/04/25 18:17:32;;;;;;;5.27;1.60;;;;;;;-145.18;100.00;47572.72;5054303;28;20796;-71
2023/04/25 18:20:00;;;;;;;3.30;0.90;;;;;;;-145.18;100.00;47603.97;5071085;28;20273;-71
2023/04/25 18:22:27;;;;;;;5.20;1.10;;;;;;;-145.18;100.00;47598.09;5070388;28;20376;-71
2023/04/25 18:24:53;;;;;;;4.93;0.93;;;;;;;-145.18;100.00;47600.06;5070863;28;20269;-71
2023/04/25 18:27:18;;;;;;;8.40;1.30;;;;;;;-145.18;100.00;47607.88;5070075;28;20265;-71
2023/04/25 18:29:44;;;;;;;10.07;2.47;;;;;;;-145.18;100.00;47621.56;5070604;28;20119;-71
2023/04/25 18:32:09;;;;;;;3.73;1.40;;;;;;;-145.18;100.00;47582.47;5070838;28;20047;-71
2023/04/25 18:34:35;;;;;;;5.43;1.60;;;;;;;-145.18;100.00;47594.19;5070039;28;20366;-71
2023/04/25 18:37:00;;;;;;;11.63;1.57;;;;;;;-145.18;100.00;47566.84;5069725;28;20576;-71